CheckWX is a tool to help pilots better visualize weather data.  It is not intended as a substitute for an official pre-flight weather briefing.

07:53:35 UTC

EGHH TAF
Bournemouth Airport
Bournemouth, United Kingdom
TAF EGHH 150530Z 1506/1515 30005KT 6000 NSC TEMPO 1506/1507 2500 MIFG BR PROB30 TEMPO 1506/1507 0300 FG BKN000 BECMG 1507/1509 CAVOK

Sep-15@
06:00 UTC

Sep-15 @ 06:00 UTC

Sep-15@
07:00 UTC

Sep-15 @ 07:00 UTC

TAF EGHH 150530Z 1506/1515 30005KT 6000 NSC

Expired

Wind
  • 300° at 5 KTS
Cloud Levels
  • No significant clouds

Sep-15@
06:00 UTC

Sep-15 @ 06:00 UTC

Sep-15@
07:00 UTC

Sep-15 @ 07:00 UTC

PROB30 TEMPO 1506/1507 0300 FG BKN000

Expired

Conditions
Fog
Cloud Levels
  • Broken

Sep-15@
06:00 UTC

Sep-15 @ 06:00 UTC

Sep-15@
07:00 UTC

Sep-15 @ 07:00 UTC

TEMPO 1506/1507 2500 MIFG BR

Expired

Conditions
Shallow Fog, Mist

Sep-15@
07:00 UTC

Sep-15 @ 07:00 UTC

Sep-15@
15:00 UTC

Sep-15 @ 15:00 UTC

BECMG 1507/1509 CAVOK

Becoming

Becoming Conditions expected by Sun, Sep 15, 2019 @ 09:00 UTC

Wind
  • 300° at 5 KTS
Conditions
No significant weather
Cloud Levels
  • No significant clouds